sensor_id;sensor_type;location;lat;lon;timestamp;P1;durP1;ratioP1;P2;durP2;ratioP2
5841;SDS011;2947;52.276;9.946;2023-11-19T00:00:50;2.67;;;1.00;;
5841;SDS011;2947;52.276;9.946;2023-11-19T00:03:16;2.23;;;1.10;;
5841;SDS011;2947;52.276;9.946;2023-11-19T00:05:42;2.40;;;1.00;;
5841;SDS011;2947;52.276;9.946;2023-11-19T00:08:09;1.90;;;0.90;;
5841;SDS011;2947;52.276;9.946;2023-11-19T00:10:35;1.80;;;0.93;;
5841;SDS011;2947;52.276;9.946;2023-11-19T00:13:01;1.83;;;0.93;;
5841;SDS011;2947;52.276;9.946;2023-11-19T00:15:27;2.53;;;1.40;;
5841;SDS011;2947;52.276;9.946;2023-11-19T00:17:53;4.00;;;1.00;;
5841;SDS011;2947;52.276;9.946;2023-11-19T00:20:20;2.03;;;1.00;;
5841;SDS011;2947;52.276;9.946;2023-11-19T00:22:47;2.50;;;1.10;;
5841;SDS011;2947;52.276;9.946;2023-11-19T00:25:19;3.53;;;1.00;;
5841;SDS011;2947;52.276;9.946;2023-11-19T00:27:46;3.40;;;1.07;;
5841;SDS011;2947;52.276;9.946;2023-11-19T00:30:12;1.70;;;0.83;;
5841;SDS011;2947;52.276;9.946;2023-11-19T00:32:39;2.07;;;1.10;;
5841;SDS011;2947;52.276;9.946;2023-11-19T00:35:05;1.87;;;1.20;;
5841;SDS011;2947;52.276;9.946;2023-11-19T00:37:35;1.80;;;0.90;;
5841;SDS011;2947;52.276;9.946;2023-11-19T00:40:01;2.67;;;1.10;;
5841;SDS011;2947;52.276;9.946;2023-11-19T00:42:31;2.37;;;1.07;;
5841;SDS011;2947;52.276;9.946;2023-11-19T00:44:56;2.00;;;1.03;;
5841;SDS011;2947;52.276;9.946;2023-11-19T00:47:23;2.63;;;1.10;;
5841;SDS011;2947;52.276;9.946;2023-11-19T00:49:48;2.27;;;1.20;;
5841;SDS011;2947;52.276;9.946;2023-11-19T00:52:15;1.83;;;1.00;;
5841;SDS011;2947;52.276;9.946;2023-11-19T00:54:44;2.20;;;1.07;;
5841;SDS011;2947;52.276;9.946;2023-11-19T00:57:09;1.90;;;1.03;;
5841;SDS011;2947;52.276;9.946;2023-11-19T00:59:36;2.27;;;1.27;;
5841;SDS011;2947;52.276;9.946;2023-11-19T01:02:02;1.70;;;0.80;;
5841;SDS011;2947;52.276;9.946;2023-11-19T01:04:32;1.80;;;1.00;;
5841;SDS011;2947;52.276;9.946;2023-11-19T01:07:01;2.77;;;1.00;;
5841;SDS011;2947;52.276;9.946;2023-11-19T01:09:37;1.80;;;0.83;;
5841;SDS011;2947;52.276;9.946;2023-11-19T01:12:04;3.00;;;1.10;;
5841;SDS011;2947;52.276;9.946;2023-11-19T01:14:30;2.50;;;0.90;;
5841;SDS011;2947;52.276;9.946;2023-11-19T01:16:56;2.97;;;1.20;;
5841;SDS011;2947;52.276;9.946;2023-11-19T01:19:22;1.57;;;0.80;;
5841;SDS011;2947;52.276;9.946;2023-11-19T01:21:48;1.87;;;0.70;;
5841;SDS011;2947;52.276;9.946;2023-11-19T01:24:15;1.80;;;0.73;;
5841;SDS011;2947;52.276;9.946;2023-11-19T01:26:41;2.67;;;0.90;;
5841;SDS011;2947;52.276;9.946;2023-11-19T01:29:13;1.70;;;0.80;;
5841;SDS011;2947;52.276;9.946;2023-11-19T01:31:40;1.97;;;0.80;;
5841;SDS011;2947;52.276;9.946;2023-11-19T01:34:07;2.07;;;1.00;;
5841;SDS011;2947;52.276;9.946;2023-11-19T01:36:33;1.80;;;0.77;;
5841;SDS011;2947;52.276;9.946;2023-11-19T01:38:58;1.87;;;1.00;;
5841;SDS011;2947;52.276;9.946;2023-11-19T01:41:24;3.60;;;1.00;;
5841;SDS011;2947;52.276;9.946;2023-11-19T01:43:50;1.63;;;0.80;;
5841;SDS011;2947;52.276;9.946;2023-11-19T01:46:16;1.83;;;0.97;;
5841;SDS011;2947;52.276;9.946;2023-11-19T01:48:43;1.80;;;0.90;;
5841;SDS011;2947;52.276;9.946;2023-11-19T01:51:11;1.60;;;0.90;;
5841;SDS011;2947;52.276;9.946;2023-11-19T01:53:37;1.70;;;0.90;;
5841;SDS011;2947;52.276;9.946;2023-11-19T01:56:06;2.27;;;1.00;;
5841;SDS011;2947;52.276;9.946;2023-11-19T01:58:36;2.23;;;0.93;;
5841;SDS011;2947;52.276;9.946;2023-11-19T02:01:04;1.43;;;0.70;;
5841;SDS011;2947;52.276;9.946;2023-11-19T02:03:31;1.93;;;0.97;;
5841;SDS011;2947;52.276;9.946;2023-11-19T02:05:58;4.17;;;0.83;;
5841;SDS011;2947;52.276;9.946;2023-11-19T02:08:25;2.63;;;1.00;;
5841;SDS011;2947;52.276;9.946;2023-11-19T02:10:51;4.77;;;1.00;;
5841;SDS011;2947;52.276;9.946;2023-11-19T02:13:20;4.93;;;0.77;;
5841;SDS011;2947;52.276;9.946;2023-11-19T02:15:46;1.67;;;0.90;;
5841;SDS011;2947;52.276;9.946;2023-11-19T02:18:21;1.67;;;0.77;;
5841;SDS011;2947;52.276;9.946;2023-11-19T02:20:55;1.97;;;0.80;;
5841;SDS011;2947;52.276;9.946;2023-11-19T02:23:22;2.13;;;1.10;;
5841;SDS011;2947;52.276;9.946;2023-11-19T02:28:39;1.60;;;0.70;;
5841;SDS011;2947;52.276;9.946;2023-11-19T02:31:05;1.37;;;0.60;;
5841;SDS011;2947;52.276;9.946;2023-11-19T02:33:34;1.97;;;0.70;;
5841;SDS011;2947;52.276;9.946;2023-11-19T02:36:01;1.90;;;0.70;;
5841;SDS011;2947;52.276;9.946;2023-11-19T02:38:32;2.67;;;0.90;;
5841;SDS011;2947;52.276;9.946;2023-11-19T02:40:58;4.03;;;0.70;;
5841;SDS011;2947;52.276;9.946;2023-11-19T02:43:30;1.37;;;0.63;;
5841;SDS011;2947;52.276;9.946;2023-11-19T02:45:58;1.70;;;0.63;;
5841;SDS011;2947;52.276;9.946;2023-11-19T02:48:30;2.93;;;0.60;;
5841;SDS011;2947;52.276;9.946;2023-11-19T02:50:56;2.10;;;1.07;;
5841;SDS011;2947;52.276;9.946;2023-11-19T02:53:23;1.50;;;0.80;;
5841;SDS011;2947;52.276;9.946;2023-11-19T02:55:52;2.00;;;0.80;;
5841;SDS011;2947;52.276;9.946;2023-11-19T02:58:18;2.50;;;0.73;;
5841;SDS011;2947;52.276;9.946;2023-11-19T03:00:49;1.53;;;0.80;;
5841;SDS011;2947;52.276;9.946;2023-11-19T03:03:21;1.50;;;0.70;;
5841;SDS011;2947;52.276;9.946;2023-11-19T03:05:53;1.40;;;0.60;;
5841;SDS011;2947;52.276;9.946;2023-11-19T03:08:20;1.60;;;0.63;;
5841;SDS011;2947;52.276;9.946;2023-11-19T03:10:47;1.40;;;0.63;;
5841;SDS011;2947;52.276;9.946;2023-11-19T03:13:13;1.40;;;0.60;;
5841;SDS011;2947;52.276;9.946;2023-11-19T03:15:40;1.53;;;0.70;;
5841;SDS011;2947;52.276;9.946;2023-11-19T03:18:06;1.57;;;0.80;;
5841;SDS011;2947;52.276;9.946;2023-11-19T03:20:33;1.93;;;0.70;;
5841;SDS011;2947;52.276;9.946;2023-11-19T03:22:59;2.20;;;0.97;;
5841;SDS011;2947;52.276;9.946;2023-11-19T03:25:26;3.00;;;0.90;;
5841;SDS011;2947;52.276;9.946;2023-11-19T03:27:58;1.93;;;0.80;;
5841;SDS011;2947;52.276;9.946;2023-11-19T03:30:25;1.50;;;0.80;;
5841;SDS011;2947;52.276;9.946;2023-11-19T03:32:51;2.10;;;1.07;;
5841;SDS011;2947;52.276;9.946;2023-11-19T03:35:17;2.10;;;0.90;;
5841;SDS011;2947;52.276;9.946;2023-11-19T03:37:42;1.73;;;0.80;;
5841;SDS011;2947;52.276;9.946;2023-11-19T03:40:08;1.50;;;0.60;;
5841;SDS011;2947;52.276;9.946;2023-11-19T03:42:35;2.43;;;0.90;;
5841;SDS011;2947;52.276;9.946;2023-11-19T03:45:01;1.60;;;0.80;;
5841;SDS011;2947;52.276;9.946;2023-11-19T03:47:29;1.90;;;0.80;;
5841;SDS011;2947;52.276;9.946;2023-11-19T03:49:55;2.20;;;1.00;;
5841;SDS011;2947;52.276;9.946;2023-11-19T03:52:23;1.60;;;0.73;;
5841;SDS011;2947;52.276;9.946;2023-11-19T03:54:49;2.07;;;0.90;;
5841;SDS011;2947;52.276;9.946;2023-11-19T03:57:15;1.80;;;0.80;;
5841;SDS011;2947;52.276;9.946;2023-11-19T03:59:41;1.60;;;0.80;;
5841;SDS011;2947;52.276;9.946;2023-11-19T04:02:06;1.60;;;0.80;;
5841;SDS011;2947;52.276;9.946;2023-11-19T04:04:32;1.90;;;0.83;;
5841;SDS011;2947;52.276;9.946;2023-11-19T04:06:58;1.67;;;0.80;;
5841;SDS011;2947;52.276;9.946;2023-11-19T04:09:26;2.57;;;1.10;;
5841;SDS011;2947;52.276;9.946;2023-11-19T04:11:52;4.20;;;1.00;;
5841;SDS011;2947;52.276;9.946;2023-11-19T04:14:17;1.77;;;0.90;;
5841;SDS011;2947;52.276;9.946;2023-11-19T04:16:46;2.90;;;1.03;;
5841;SDS011;2947;52.276;9.946;2023-11-19T04:19:12;1.60;;;0.83;;
5841;SDS011;2947;52.276;9.946;2023-11-19T04:21:40;3.00;;;0.90;;
5841;SDS011;2947;52.276;9.946;2023-11-19T04:24:07;2.07;;;1.00;;
5841;SDS011;2947;52.276;9.946;2023-11-19T04:26:34;2.97;;;1.10;;
5841;SDS011;2947;52.276;9.946;2023-11-19T04:29:00;2.87;;;1.47;;
5841;SDS011;2947;52.276;9.946;2023-11-19T04:31:29;2.70;;;1.50;;
5841;SDS011;2947;52.276;9.946;2023-11-19T04:33:56;3.70;;;1.50;;
5841;SDS011;2947;52.276;9.946;2023-11-19T04:36:22;2.60;;;1.60;;
5841;SDS011;2947;52.276;9.946;2023-11-19T04:38:49;4.80;;;1.70;;
5841;SDS011;2947;52.276;9.946;2023-11-19T04:41:15;3.50;;;1.80;;
5841;SDS011;2947;52.276;9.946;2023-11-19T04:43:41;3.23;;;1.60;;
5841;SDS011;2947;52.276;9.946;2023-11-19T04:46:07;4.00;;;1.80;;
5841;SDS011;2947;52.276;9.946;2023-11-19T04:48:34;5.90;;;2.63;;
5841;SDS011;2947;52.276;9.946;2023-11-19T04:51:00;3.53;;;1.80;;
5841;SDS011;2947;52.276;9.946;2023-11-19T04:53:26;7.33;;;2.23;;
5841;SDS011;2947;52.276;9.946;2023-11-19T04:55:52;7.43;;;2.40;;
5841;SDS011;2947;52.276;9.946;2023-11-19T04:58:17;5.33;;;2.93;;
5841;SDS011;2947;52.276;9.946;2023-11-19T05:00:44;5.47;;;3.20;;
5841;SDS011;2947;52.276;9.946;2023-11-19T05:03:10;12.20;;;3.77;;
5841;SDS011;2947;52.276;9.946;2023-11-19T05:05:36;7.83;;;3.67;;
5841;SDS011;2947;52.276;9.946;2023-11-19T05:08:01;5.40;;;3.50;;
5841;SDS011;2947;52.276;9.946;2023-11-19T05:10:27;8.83;;;3.53;;
5841;SDS011;2947;52.276;9.946;2023-11-19T05:12:53;5.93;;;3.70;;
5841;SDS011;2947;52.276;9.946;2023-11-19T05:15:21;6.20;;;3.30;;
5841;SDS011;2947;52.276;9.946;2023-11-19T05:17:47;5.93;;;4.37;;
5841;SDS011;2947;52.276;9.946;2023-11-19T05:20:13;5.90;;;3.70;;
5841;SDS011;2947;52.276;9.946;2023-11-19T05:22:42;5.27;;;2.60;;
5841;SDS011;2947;52.276;9.946;2023-11-19T05:25:08;6.93;;;3.27;;
5841;SDS011;2947;52.276;9.946;2023-11-19T05:27:36;6.57;;;3.43;;
5841;SDS011;2947;52.276;9.946;2023-11-19T05:30:03;6.93;;;3.50;;
5841;SDS011;2947;52.276;9.946;2023-11-19T05:32:32;5.23;;;2.90;;
5841;SDS011;2947;52.276;9.946;2023-11-19T05:34:58;11.23;;;3.33;;
5841;SDS011;2947;52.276;9.946;2023-11-19T05:37:24;5.93;;;3.23;;
5841;SDS011;2947;52.276;9.946;2023-11-19T05:39:50;9.00;;;3.27;;
5841;SDS011;2947;52.276;9.946;2023-11-19T05:42:16;10.00;;;3.70;;
5841;SDS011;2947;52.276;9.946;2023-11-19T05:44:42;7.07;;;3.50;;
5841;SDS011;2947;52.276;9.946;2023-11-19T05:47:07;7.37;;;3.43;;
5841;SDS011;2947;52.276;9.946;2023-11-19T05:49:33;5.50;;;3.67;;
5841;SDS011;2947;52.276;9.946;2023-11-19T05:51:59;8.70;;;3.97;;
5841;SDS011;2947;52.276;9.946;2023-11-19T05:54:27;5.27;;;3.50;;
5841;SDS011;2947;52.276;9.946;2023-11-19T05:56:52;7.20;;;4.30;;
5841;SDS011;2947;52.276;9.946;2023-11-19T05:59:19;10.03;;;4.00;;
5841;SDS011;2947;52.276;9.946;2023-11-19T06:01:45;8.50;;;3.20;;
5841;SDS011;2947;52.276;9.946;2023-11-19T06:04:11;13.80;;;3.93;;
5841;SDS011;2947;52.276;9.946;2023-11-19T06:06:37;9.03;;;4.17;;
5841;SDS011;2947;52.276;9.946;2023-11-19T06:09:03;12.33;;;4.23;;
5841;SDS011;2947;52.276;9.946;2023-11-19T06:11:29;9.90;;;3.20;;
5841;SDS011;2947;52.276;9.946;2023-11-19T06:13:56;9.10;;;3.83;;
5841;SDS011;2947;52.276;9.946;2023-11-19T06:16:22;8.83;;;3.83;;
5841;SDS011;2947;52.276;9.946;2023-11-19T06:18:48;9.00;;;3.77;;
5841;SDS011;2947;52.276;9.946;2023-11-19T06:21:13;8.57;;;4.33;;
5841;SDS011;2947;52.276;9.946;2023-11-19T06:23:39;7.50;;;4.57;;
5841;SDS011;2947;52.276;9.946;2023-11-19T06:26:05;11.93;;;4.23;;
5841;SDS011;2947;52.276;9.946;2023-11-19T06:28:31;12.33;;;4.87;;
5841;SDS011;2947;52.276;9.946;2023-11-19T06:30:57;10.17;;;4.53;;
5841;SDS011;2947;52.276;9.946;2023-11-19T06:33:23;14.70;;;4.67;;
5841;SDS011;2947;52.276;9.946;2023-11-19T06:35:50;15.13;;;4.90;;
5841;SDS011;2947;52.276;9.946;2023-11-19T06:38:16;12.63;;;5.20;;
5841;SDS011;2947;52.276;9.946;2023-11-19T06:40:42;21.27;;;6.30;;
5841;SDS011;2947;52.276;9.946;2023-11-19T06:43:08;16.10;;;5.03;;
5841;SDS011;2947;52.276;9.946;2023-11-19T06:45:34;16.50;;;5.20;;
5841;SDS011;2947;52.276;9.946;2023-11-19T06:48:01;12.60;;;5.00;;
5841;SDS011;2947;52.276;9.946;2023-11-19T06:50:28;22.27;;;5.40;;
5841;SDS011;2947;52.276;9.946;2023-11-19T06:52:54;19.67;;;4.80;;
5841;SDS011;2947;52.276;9.946;2023-11-19T06:55:21;11.90;;;4.50;;
5841;SDS011;2947;52.276;9.946;2023-11-19T06:57:46;15.60;;;4.20;;
5841;SDS011;2947;52.276;9.946;2023-11-19T07:00:12;11.30;;;4.07;;
5841;SDS011;2947;52.276;9.946;2023-11-19T07:02:38;17.67;;;4.67;;
5841;SDS011;2947;52.276;9.946;2023-11-19T07:05:04;13.60;;;4.40;;
5841;SDS011;2947;52.276;9.946;2023-11-19T07:07:31;16.27;;;4.43;;
5841;SDS011;2947;52.276;9.946;2023-11-19T07:10:00;21.27;;;3.23;;
5841;SDS011;2947;52.276;9.946;2023-11-19T07:12:27;13.77;;;4.27;;
5841;SDS011;2947;52.276;9.946;2023-11-19T07:14:53;16.47;;;3.43;;
5841;SDS011;2947;52.276;9.946;2023-11-19T07:17:20;14.53;;;3.37;;
5841;SDS011;2947;52.276;9.946;2023-11-19T07:19:46;17.37;;;4.27;;
5841;SDS011;2947;52.276;9.946;2023-11-19T07:22:15;13.90;;;4.70;;
5841;SDS011;2947;52.276;9.946;2023-11-19T07:24:41;18.60;;;3.40;;
5841;SDS011;2947;52.276;9.946;2023-11-19T07:27:08;20.87;;;4.23;;
5841;SDS011;2947;52.276;9.946;2023-11-19T07:29:36;22.30;;;4.63;;
5841;SDS011;2947;52.276;9.946;2023-11-19T07:32:02;15.03;;;3.90;;
5841;SDS011;2947;52.276;9.946;2023-11-19T07:34:28;13.07;;;3.50;;
5841;SDS011;2947;52.276;9.946;2023-11-19T07:36:54;26.13;;;3.60;;
5841;SDS011;2947;52.276;9.946;2023-11-19T07:39:24;15.73;;;3.97;;
5841;SDS011;2947;52.276;9.946;2023-11-19T07:41:50;23.23;;;3.90;;
5841;SDS011;2947;52.276;9.946;2023-11-19T07:44:15;19.40;;;3.33;;
5841;SDS011;2947;52.276;9.946;2023-11-19T07:46:41;12.83;;;3.10;;
5841;SDS011;2947;52.276;9.946;2023-11-19T07:49:07;21.60;;;4.00;;
5841;SDS011;2947;52.276;9.946;2023-11-19T07:51:34;24.67;;;3.73;;
5841;SDS011;2947;52.276;9.946;2023-11-19T07:54:01;23.27;;;4.13;;
5841;SDS011;2947;52.276;9.946;2023-11-19T07:56:26;20.13;;;3.40;;
5841;SDS011;2947;52.276;9.946;2023-11-19T07:58:52;24.33;;;3.23;;
5841;SDS011;2947;52.276;9.946;2023-11-19T08:01:18;18.13;;;3.27;;
5841;SDS011;2947;52.276;9.946;2023-11-19T08:03:44;13.10;;;3.23;;
5841;SDS011;2947;52.276;9.946;2023-11-19T08:06:09;16.83;;;4.17;;
5841;SDS011;2947;52.276;9.946;2023-11-19T08:08:36;29.87;;;4.50;;
5841;SDS011;2947;52.276;9.946;2023-11-19T08:11:03;24.80;;;4.23;;
5841;SDS011;2947;52.276;9.946;2023-11-19T08:13:30;15.13;;;4.00;;
5841;SDS011;2947;52.276;9.946;2023-11-19T08:15:56;25.20;;;3.90;;
5841;SDS011;2947;52.276;9.946;2023-11-19T08:18:23;12.23;;;3.70;;
5841;SDS011;2947;52.276;9.946;2023-11-19T08:20:49;21.23;;;3.40;;
5841;SDS011;2947;52.276;9.946;2023-11-19T08:23:18;18.60;;;3.17;;
5841;SDS011;2947;52.276;9.946;2023-11-19T08:25:45;18.03;;;3.30;;
5841;SDS011;2947;52.276;9.946;2023-11-19T08:28:10;16.47;;;3.40;;
5841;SDS011;2947;52.276;9.946;2023-11-19T08:30:36;31.03;;;3.77;;
5841;SDS011;2947;52.276;9.946;2023-11-19T08:33:02;26.70;;;4.33;;
5841;SDS011;2947;52.276;9.946;2023-11-19T08:35:28;14.10;;;3.17;;
5841;SDS011;2947;52.276;9.946;2023-11-19T08:37:56;18.10;;;2.80;;
5841;SDS011;2947;52.276;9.946;2023-11-19T08:40:22;17.10;;;4.60;;
5841;SDS011;2947;52.276;9.946;2023-11-19T08:42:48;25.40;;;3.73;;
5841;SDS011;2947;52.276;9.946;2023-11-19T08:45:13;18.70;;;3.40;;
5841;SDS011;2947;52.276;9.946;2023-11-19T08:47:39;19.70;;;4.03;;
5841;SDS011;2947;52.276;9.946;2023-11-19T08:50:05;21.13;;;4.03;;
5841;SDS011;2947;52.276;9.946;2023-11-19T08:52:31;29.20;;;4.70;;
5841;SDS011;2947;52.276;9.946;2023-11-19T08:54:57;24.67;;;3.60;;
5841;SDS011;2947;52.276;9.946;2023-11-19T08:57:23;22.93;;;3.83;;
5841;SDS011;2947;52.276;9.946;2023-11-19T08:59:49;19.00;;;3.30;;
5841;SDS011;2947;52.276;9.946;2023-11-19T09:02:15;23.13;;;4.03;;
5841;SDS011;2947;52.276;9.946;2023-11-19T09:04:41;21.33;;;2.93;;
5841;SDS011;2947;52.276;9.946;2023-11-19T09:07:07;21.13;;;3.73;;
5841;SDS011;2947;52.276;9.946;2023-11-19T09:09:34;17.60;;;3.80;;
5841;SDS011;2947;52.276;9.946;2023-11-19T09:12:01;13.87;;;3.80;;
5841;SDS011;2947;52.276;9.946;2023-11-19T09:14:28;26.67;;;4.40;;
5841;SDS011;2947;52.276;9.946;2023-11-19T09:16:55;14.80;;;4.07;;
5841;SDS011;2947;52.276;9.946;2023-11-19T09:19:21;21.27;;;3.53;;
5841;SDS011;2947;52.276;9.946;2023-11-19T09:21:47;19.77;;;4.90;;
5841;SDS011;2947;52.276;9.946;2023-11-19T09:24:14;20.40;;;3.47;;
5841;SDS011;2947;52.276;9.946;2023-11-19T09:26:40;20.27;;;3.50;;
5841;SDS011;2947;52.276;9.946;2023-11-19T09:29:07;22.87;;;4.70;;
5841;SDS011;2947;52.276;9.946;2023-11-19T09:31:33;20.50;;;4.83;;
5841;SDS011;2947;52.276;9.946;2023-11-19T09:33:59;21.43;;;3.57;;
5841;SDS011;2947;52.276;9.946;2023-11-19T09:36:25;26.07;;;4.40;;
5841;SDS011;2947;52.276;9.946;2023-11-19T09:38:51;19.47;;;4.03;;
5841;SDS011;2947;52.276;9.946;2023-11-19T09:41:17;20.20;;;3.30;;
5841;SDS011;2947;52.276;9.946;2023-11-19T09:43:44;23.67;;;4.17;;
5841;SDS011;2947;52.276;9.946;2023-11-19T09:46:11;46.33;;;5.57;;
5841;SDS011;2947;52.276;9.946;2023-11-19T09:48:39;22.20;;;3.77;;
5841;SDS011;2947;52.276;9.946;2023-11-19T09:51:08;17.73;;;3.63;;
5841;SDS011;2947;52.276;9.946;2023-11-19T09:53:36;22.97;;;4.00;;
5841;SDS011;2947;52.276;9.946;2023-11-19T09:56:03;23.70;;;3.97;;
5841;SDS011;2947;52.276;9.946;2023-11-19T09:58:32;22.97;;;4.43;;
5841;SDS011;2947;52.276;9.946;2023-11-19T10:00:59;18.73;;;3.10;;
5841;SDS011;2947;52.276;9.946;2023-11-19T10:03:27;20.47;;;3.40;;
5841;SDS011;2947;52.276;9.946;2023-11-19T10:06:00;28.87;;;4.47;;
5841;SDS011;2947;52.276;9.946;2023-11-19T10:08:28;18.87;;;3.73;;
5841;SDS011;2947;52.276;9.946;2023-11-19T10:10:54;19.13;;;3.43;;
5841;SDS011;2947;52.276;9.946;2023-11-19T10:13:30;21.47;;;3.43;;
5841;SDS011;2947;52.276;9.946;2023-11-19T10:15:56;19.47;;;3.90;;
5841;SDS011;2947;52.276;9.946;2023-11-19T10:18:25;21.27;;;4.30;;
5841;SDS011;2947;52.276;9.946;2023-11-19T10:20:52;25.70;;;3.83;;
5841;SDS011;2947;52.276;9.946;2023-11-19T10:23:19;17.50;;;3.30;;
5841;SDS011;2947;52.276;9.946;2023-11-19T10:25:45;27.50;;;3.53;;
5841;SDS011;2947;52.276;9.946;2023-11-19T10:28:11;18.37;;;3.40;;
5841;SDS011;2947;52.276;9.946;2023-11-19T10:30:41;16.87;;;3.83;;
5841;SDS011;2947;52.276;9.946;2023-11-19T10:33:08;17.23;;;3.27;;
5841;SDS011;2947;52.276;9.946;2023-11-19T10:35:55;22.37;;;3.60;;
5841;SDS011;2947;52.276;9.946;2023-11-19T10:38:23;24.20;;;4.27;;
5841;SDS011;2947;52.276;9.946;2023-11-19T10:40:50;27.67;;;3.80;;
5841;SDS011;2947;52.276;9.946;2023-11-19T10:43:17;20.50;;;3.90;;
5841;SDS011;2947;52.276;9.946;2023-11-19T10:45:43;24.40;;;3.20;;
5841;SDS011;2947;52.276;9.946;2023-11-19T10:48:09;21.27;;;3.10;;
5841;SDS011;2947;52.276;9.946;2023-11-19T10:50:35;19.52;;;3.22;;
5841;SDS011;2947;52.276;9.946;2023-11-19T10:53:03;16.10;;;3.50;;
5841;SDS011;2947;52.276;9.946;2023-11-19T10:55:33;23.03;;;3.80;;
5841;SDS011;2947;52.276;9.946;2023-11-19T10:58:03;15.53;;;2.47;;
5841;SDS011;2947;52.276;9.946;2023-11-19T11:00:43;12.80;;;3.47;;
5841;SDS011;2947;52.276;9.946;2023-11-19T11:03:16;17.45;;;3.42;;
5841;SDS011;2947;52.276;9.946;2023-11-19T11:05:47;10.43;;;2.80;;
5841;SDS011;2947;52.276;9.946;2023-11-19T11:08:14;18.47;;;3.77;;
5841;SDS011;2947;52.276;9.946;2023-11-19T11:10:42;18.80;;;3.30;;
5841;SDS011;2947;52.276;9.946;2023-11-19T11:13:22;20.80;;;3.70;;
5841;SDS011;2947;52.276;9.946;2023-11-19T11:15:49;12.70;;;2.73;;
5841;SDS011;2947;52.276;9.946;2023-11-19T11:18:16;12.67;;;3.30;;
5841;SDS011;2947;52.276;9.946;2023-11-19T11:20:44;23.83;;;3.50;;
5841;SDS011;2947;52.276;9.946;2023-11-19T11:29:08;16.03;;;3.47;;
5841;SDS011;2947;52.276;9.946;2023-11-19T11:34:46;22.53;;;3.87;;
5841;SDS011;2947;52.276;9.946;2023-11-19T11:37:37;16.20;;;3.80;;
5841;SDS011;2947;52.276;9.946;2023-11-19T11:40:16;23.17;;;3.50;;
5841;SDS011;2947;52.276;9.946;2023-11-19T11:42:43;21.02;;;4.70;;
5841;SDS011;2947;52.276;9.946;2023-11-19T11:45:10;23.13;;;4.05;;
5841;SDS011;2947;52.276;9.946;2023-11-19T11:58:18;16.83;;;4.00;;
5841;SDS011;2947;52.276;9.946;2023-11-19T12:01:04;20.30;;;5.03;;
5841;SDS011;2947;52.276;9.946;2023-11-19T12:03:32;15.93;;;3.40;;
5841;SDS011;2947;52.276;9.946;2023-11-19T12:05:59;21.20;;;3.80;;
5841;SDS011;2947;52.276;9.946;2023-11-19T12:08:26;28.20;;;4.20;;
5841;SDS011;2947;52.276;9.946;2023-11-19T12:10:55;17.00;;;3.43;;
5841;SDS011;2947;52.276;9.946;2023-11-19T12:13:23;20.67;;;4.70;;
5841;SDS011;2947;52.276;9.946;2023-11-19T12:18:29;19.33;;;3.80;;
5841;SDS011;2947;52.276;9.946;2023-11-19T12:20:59;20.90;;;3.53;;
5841;SDS011;2947;52.276;9.946;2023-11-19T12:23:34;21.97;;;5.33;;
5841;SDS011;2947;52.276;9.946;2023-11-19T12:25:59;19.13;;;3.88;;
5841;SDS011;2947;52.276;9.946;2023-11-19T12:28:25;24.17;;;3.92;;
5841;SDS011;2947;52.276;9.946;2023-11-19T12:30:52;23.75;;;3.88;;
5841;SDS011;2947;52.276;9.946;2023-11-19T12:33:18;30.17;;;3.78;;
5841;SDS011;2947;52.276;9.946;2023-11-19T12:35:45;29.38;;;4.72;;
5841;SDS011;2947;52.276;9.946;2023-11-19T12:38:19;21.92;;;3.40;;
5841;SDS011;2947;52.276;9.946;2023-11-19T12:41:07;30.02;;;3.90;;
5841;SDS011;2947;52.276;9.946;2023-11-19T12:43:36;18.83;;;3.85;;
5841;SDS011;2947;52.276;9.946;2023-11-19T12:46:24;19.75;;;5.07;;
5841;SDS011;2947;52.276;9.946;2023-11-19T12:48:49;17.02;;;3.45;;
5841;SDS011;2947;52.276;9.946;2023-11-19T12:51:15;17.55;;;3.70;;
5841;SDS011;2947;52.276;9.946;2023-11-19T12:53:48;29.60;;;4.30;;
5841;SDS011;2947;52.276;9.946;2023-11-19T12:56:22;20.00;;;3.35;;
5841;SDS011;2947;52.276;9.946;2023-11-19T12:58:49;20.98;;;4.13;;
5841;SDS011;2947;52.276;9.946;2023-11-19T13:01:16;13.85;;;3.45;;
5841;SDS011;2947;52.276;9.946;2023-11-19T13:03:44;25.88;;;3.78;;
5841;SDS011;2947;52.276;9.946;2023-11-19T13:06:11;25.40;;;5.47;;
5841;SDS011;2947;52.276;9.946;2023-11-19T13:08:48;23.25;;;3.58;;
5841;SDS011;2947;52.276;9.946;2023-11-19T13:11:30;28.30;;;4.43;;
5841;SDS011;2947;52.276;9.946;2023-11-19T13:13:58;18.97;;;3.70;;
5841;SDS011;2947;52.276;9.946;2023-11-19T13:16:28;15.88;;;4.18;;
5841;SDS011;2947;52.276;9.946;2023-11-19T13:18:53;13.43;;;3.20;;
5841;SDS011;2947;52.276;9.946;2023-11-19T13:21:20;19.30;;;4.60;;
5841;SDS011;2947;52.276;9.946;2023-11-19T13:23:47;30.07;;;3.93;;
5841;SDS011;2947;52.276;9.946;2023-11-19T13:26:13;22.25;;;3.42;;
5841;SDS011;2947;52.276;9.946;2023-11-19T13:28:38;29.13;;;4.43;;
5841;SDS011;2947;52.276;9.946;2023-11-19T13:31:04;28.03;;;3.73;;
5841;SDS011;2947;52.276;9.946;2023-11-19T13:33:30;18.13;;;3.17;;
5841;SDS011;2947;52.276;9.946;2023-11-19T13:35:56;21.63;;;3.55;;
5841;SDS011;2947;52.276;9.946;2023-11-19T13:38:22;30.80;;;4.30;;
5841;SDS011;2947;52.276;9.946;2023-11-19T13:40:51;17.30;;;3.50;;
5841;SDS011;2947;52.276;9.946;2023-11-19T13:43:17;13.63;;;3.53;;
5841;SDS011;2947;52.276;9.946;2023-11-19T13:45:42;22.90;;;4.13;;
5841;SDS011;2947;52.276;9.946;2023-11-19T13:48:08;15.97;;;3.47;;
5841;SDS011;2947;52.276;9.946;2023-11-19T13:50:34;26.40;;;5.05;;
5841;SDS011;2947;52.276;9.946;2023-11-19T13:53:00;19.90;;;3.83;;
5841;SDS011;2947;52.276;9.946;2023-11-19T13:55:27;19.23;;;3.23;;
5841;SDS011;2947;52.276;9.946;2023-11-19T13:57:53;23.63;;;4.73;;
5841;SDS011;2947;52.276;9.946;2023-11-19T14:00:19;17.30;;;3.60;;
5841;SDS011;2947;52.276;9.946;2023-11-19T14:02:45;16.40;;;3.83;;
5841;SDS011;2947;52.276;9.946;2023-11-19T14:05:12;20.67;;;3.60;;
5841;SDS011;2947;52.276;9.946;2023-11-19T14:07:39;20.97;;;3.97;;
5841;SDS011;2947;52.276;9.946;2023-11-19T14:10:05;20.17;;;3.60;;
5841;SDS011;2947;52.276;9.946;2023-11-19T14:12:39;14.00;;;3.50;;
5841;SDS011;2947;52.276;9.946;2023-11-19T14:15:06;19.57;;;3.67;;
5841;SDS011;2947;52.276;9.946;2023-11-19T14:17:34;21.97;;;5.13;;
5841;SDS011;2947;52.276;9.946;2023-11-19T14:20:02;19.07;;;4.30;;
5841;SDS011;2947;52.276;9.946;2023-11-19T14:22:37;17.60;;;3.67;;
5841;SDS011;2947;52.276;9.946;2023-11-19T14:25:07;25.73;;;3.72;;
5841;SDS011;2947;52.276;9.946;2023-11-19T14:27:39;25.27;;;3.92;;
5841;SDS011;2947;52.276;9.946;2023-11-19T14:30:07;28.57;;;4.50;;
5841;SDS011;2947;52.276;9.946;2023-11-19T14:32:36;22.90;;;4.85;;
5841;SDS011;2947;52.276;9.946;2023-11-19T14:35:03;21.80;;;3.80;;
5841;SDS011;2947;52.276;9.946;2023-11-19T14:37:30;28.77;;;4.90;;
5841;SDS011;2947;52.276;9.946;2023-11-19T14:39:57;18.33;;;3.27;;
5841;SDS011;2947;52.276;9.946;2023-11-19T14:42:27;18.57;;;3.20;;
5841;SDS011;2947;52.276;9.946;2023-11-19T14:44:52;18.97;;;3.87;;
5841;SDS011;2947;52.276;9.946;2023-11-19T14:47:19;25.33;;;4.43;;
5841;SDS011;2947;52.276;9.946;2023-11-19T14:49:45;20.30;;;4.40;;
5841;SDS011;2947;52.276;9.946;2023-11-19T14:52:11;20.10;;;3.00;;
5841;SDS011;2947;52.276;9.946;2023-11-19T14:54:37;28.90;;;3.97;;
5841;SDS011;2947;52.276;9.946;2023-11-19T14:57:06;27.03;;;4.13;;
5841;SDS011;2947;52.276;9.946;2023-11-19T14:59:33;30.97;;;3.73;;
5841;SDS011;2947;52.276;9.946;2023-11-19T15:02:00;23.17;;;4.30;;
5841;SDS011;2947;52.276;9.946;2023-11-19T15:04:26;30.03;;;6.60;;
5841;SDS011;2947;52.276;9.946;2023-11-19T15:06:52;21.47;;;4.27;;
5841;SDS011;2947;52.276;9.946;2023-11-19T15:09:18;22.47;;;4.10;;
5841;SDS011;2947;52.276;9.946;2023-11-19T15:11:46;17.40;;;4.00;;
5841;SDS011;2947;52.276;9.946;2023-11-19T15:14:12;16.03;;;3.50;;
5841;SDS011;2947;52.276;9.946;2023-11-19T15:16:44;21.10;;;4.27;;
5841;SDS011;2947;52.276;9.946;2023-11-19T15:19:15;20.33;;;3.60;;
5841;SDS011;2947;52.276;9.946;2023-11-19T15:21:41;16.60;;;3.87;;
5841;SDS011;2947;52.276;9.946;2023-11-19T15:24:08;31.80;;;4.57;;
5841;SDS011;2947;52.276;9.946;2023-11-19T15:26:34;16.40;;;3.87;;
5841;SDS011;2947;52.276;9.946;2023-11-19T15:29:01;18.40;;;3.53;;
5841;SDS011;2947;52.276;9.946;2023-11-19T15:31:27;22.53;;;3.67;;
5841;SDS011;2947;52.276;9.946;2023-11-19T15:33:54;17.70;;;4.17;;